• Join FlightAware (Why Join?)
  • Login
  • US Flag 
04:32AM EDT


 

Airport Tracker/Info


-or-


 

Live Flight TrackerFlight Track Log ✈ SKW5619 ✈ 06-Jun-2013 ✈ KDEN - KHLN

Flight Track Log - Related Links

Times and Time Zones

All times are in EDT time to prevent confusion due to time zone crossing. See the SKW5619 flight status page for this flight to view local times or setup timezone preferences in your user account.

Time Position Orientation Groundspeed Altitude Reporting Facility
EDT Latitude Longitude Course Direction KTS MPH feet Rate Location/Type
10:05PM 40.2182 -105.0108 324° Northwest  Level Estimated
10:06PM 40.3072 -105.0958 324° Northwest  Level Estimated
10:07PM 40.3961 -105.1810 324° Northwest  Level Estimated
10:08PM 40.4850 -105.2664 324° Northwest  Level Estimated
10:09PM 40.5738 -105.3521 324° Northwest  Level Estimated
10:10PM 40.6625 -105.4380 324° Northwest  Level Estimated
10:11PM 40.7512 -105.5241 324° Northwest  Level Estimated
10:12PM 40.8398 -105.6104 324° Northwest  Level Estimated
10:13PM 40.9283 -105.6970 324° Northwest  Level Estimated
10:14PM 41.0168 -105.7838 324° Northwest  Level Estimated
10:15PM 41.1052 -105.8708 323° Northwest  Level Estimated
10:16PM 41.1935 -105.9581 323° Northwest  Level Estimated
10:17PM 41.2818 -106.0456 323° Northwest  Level Estimated
10:18PM 41.3700 -106.1333 323° Northwest  Level Estimated
10:19PM 41.4581 -106.2213 323° Northwest  Level Estimated
10:20PM 41.5462 -106.3095 323° Northwest  Level Estimated
10:21PM 41.6342 -106.3980 323° Northwest  Level Estimated
10:22PM 41.7222 -106.4867 323° Northwest  Level Estimated
10:23PM 41.8101 -106.5756 323° Northwest  Level Estimated
10:24PM 41.8979 -106.6648 323° Northwest  Level Estimated
10:25PM 41.9856 -106.7542 323° Northwest  Level Estimated
10:26PM 42.0732 -106.8439 323° Northwest  Level Estimated
10:27PM 42.1608 -106.9338 323° Northwest  Level Estimated
10:28PM 42.2483 -107.0240 323° Northwest  Level Estimated
10:29PM 42.3358 -107.1144 323° Northwest  Level Estimated
10:30PM 42.4232 -107.2051 323° Northwest  Level Estimated
10:31PM 42.5105 -107.2960 322° Northwest  Level Estimated
10:32PM 42.5977 -107.3872 322° Northwest  Level Estimated
10:33PM 42.6849 -107.4787 322° Northwest  Level Estimated
10:34PM 42.7720 -107.5704 322° Northwest  Level Estimated
10:35PM 42.8590 -107.6623 322° Northwest  Level Estimated
10:36PM 42.9460 -107.7545 322° Northwest  Level Estimated
10:37PM 43.0328 -107.8470 322° Northwest  Level Estimated
10:38PM 43.1196 -107.9397 322° Northwest  Level Estimated
10:39PM 43.2063 -108.0327 322° Northwest  Level Estimated
10:40PM 43.2930 -108.1260 322° Northwest  Level Estimated
10:41PM 43.3796 -108.2195 322° Northwest  Level Estimated
10:42PM 43.4661 -108.3133 322° Northwest  Level Estimated
10:43PM 43.5525 -108.4074 322° Northwest  Level Estimated
10:44PM 43.6388 -108.5017 322° Northwest  Level Estimated
10:45PM 43.7251 -108.5963 322° Northwest  Level Estimated
10:46PM 43.8113 -108.6912 322° Northwest  Level Estimated
10:47PM 43.8974 -108.7864 321° Northwest  Level Estimated
10:48PM 43.9834 -108.8818 321° Northwest  Level Estimated
10:49PM 44.0693 -108.9775 321° Northwest  Level Estimated
10:50PM 44.1552 -109.0735 321° Northwest  Level Estimated
10:51PM 44.2410 -109.1698 321° Northwest  Level Estimated
10:52PM 44.3267 -109.2663 321° Northwest  Level Estimated
10:53PM 44.4123 -109.3632 321° Northwest  Level Estimated
10:54PM 44.4978 -109.4603 321° Northwest  Level Estimated
10:55PM 44.5833 -109.5577 321° Northwest  Level Estimated
10:56PM 44.6687 -109.6553 321° Northwest  Level Estimated
10:57PM 44.7540 -109.7533 321° Northwest  Level Estimated
10:58PM 44.8392 -109.8516 321° Northwest  Level Estimated
10:59PM 44.9243 -109.9501 321° Northwest  Level Estimated
11:00PM 45.0093 -110.0490 321° Northwest  Level Estimated
11:01PM 45.0943 -110.1481 321° Northwest  Level Estimated
11:02PM 45.1792 -110.2475 320° Northwest  Level Estimated
11:03PM 45.2639 -110.3473 320° Northwest  Level Estimated
11:04PM 45.3486 -110.4473 320° Northwest  Level Estimated
11:05PM 45.4332 -110.5476 320° Northwest  Level Estimated
11:06PM 45.5177 -110.6482 320° Northwest  Level Estimated
11:07PM 45.6022 -110.7492 320° Northwest  Level Estimated
11:08PM 45.6865 -110.8504 320° Northwest  Level Estimated
11:09PM 45.7708 -110.9520 320° Northwest  Level Estimated
11:10PM 45.8549 -111.0538 320° Northwest  Level Estimated
11:11PM 45.9390 -111.1560 320° Northwest  Level Estimated
11:12PM 46.0230 -111.2584 320° Northwest  Level Estimated
11:13PM 46.1069 -111.3612 320° Northwest  Level Estimated
11:14PM 46.1907 -111.4643 320° Northwest  Level Estimated
11:15PM 46.2743 -111.5677 320° Northwest  Level Estimated
11:16PM 46.3580 -111.6714 319° Northwest  Level Estimated
11:17PM 46.4415 -111.7755 319° Northwest  Level Estimated
11:18PM 46.5249 -111.8798 319° Northwest  Level Estimated
11:19PM 46.6068 -111.9827 319° Northwest  Level Estimated
11:20PM 46.6068 -111.9827 180° South  Level Estimated
11:21PM 46.6068 -111.9827 180° South  Level Estimated
11:22PM 46.6068 -111.9827 180° South  Level Estimated
11:23PM 46.6068 -111.9827 180° South  Level Estimated
11:24PM 46.6068 -111.9827 180° South  Level Estimated
11:25PM 46.6068 -111.9827 180° South  Level Estimated
11:26PM 46.6068 -111.9827 180° South  Level Estimated